createdAt,value
2017-12-27T00:02:08.545Z,4.93
2017-12-27T00:04:51.348Z,12.80
2017-12-27T01:05:58.827Z,8.20
2017-12-27T01:08:29.070Z,10.67
2017-12-27T01:10:58.270Z,8.37
2017-12-27T01:13:31.144Z,7.47
2017-12-27T01:16:02.369Z,8.33
2017-12-27T01:18:33.112Z,10.67
2017-12-27T01:28:10.165Z,16.27
2017-12-27T01:30:40.159Z,13.33
2017-12-27T01:33:10.908Z,17.73
2017-12-27T01:35:40.491Z,19.47
2017-12-27T02:12:16.610Z,8.53
2017-12-27T02:14:47.871Z,11.23
2017-12-27T02:17:18.642Z,17.10
2017-12-27T02:19:50.078Z,19.50
2017-12-27T02:22:19.892Z,20.20
2017-12-27T02:24:56.674Z,14.00
2017-12-27T02:27:27.451Z,11.70
2017-12-27T02:30:02.911Z,16.60
2017-12-27T02:32:38.328Z,15.60
2017-12-27T02:35:15.081Z,16.43
2017-12-27T02:37:45.424Z,18.20
2017-12-27T02:40:26.502Z,14.30
2017-12-27T02:42:59.683Z,13.43
2017-12-27T02:45:31.075Z,21.17
2017-12-27T02:48:05.260Z,15.20
2017-12-27T02:50:42.386Z,15.53
2017-12-27T02:53:20.553Z,13.10
2017-12-27T02:55:54.752Z,17.83
2017-12-27T02:58:26.377Z,18.93
2017-12-27T03:00:58.514Z,15.10
2017-12-27T03:03:29.493Z,17.63
2017-12-27T03:05:59.516Z,26.90
2017-12-27T03:08:33.356Z,21.80
2017-12-27T03:11:04.170Z,30.90
2017-12-27T03:13:39.321Z,23.47
2017-12-27T03:16:13.592Z,20.90
2017-12-27T03:18:52.823Z,28.13
2017-12-27T03:21:29.330Z,39.43
2017-12-27T03:24:01.901Z,32.27
2017-12-27T03:26:39.979Z,28.77
2017-12-27T03:29:12.780Z,20.60
2017-12-27T03:31:47.565Z,21.13
2017-12-27T03:34:40.094Z,17.97
2017-12-27T03:37:10.297Z,16.27
2017-12-27T03:42:24.551Z,21.73
2017-12-27T03:44:59.749Z,23.10
2017-12-27T03:47:35.279Z,13.40
2017-12-27T03:50:11.334Z,27.30
2017-12-27T03:52:47.605Z,25.40
2017-12-27T03:59:19.353Z,17.57
2017-12-27T04:01:50.644Z,17.03
2017-12-27T04:04:20.864Z,20.10
2017-12-27T04:06:55.094Z,16.73
2017-12-27T04:16:12.652Z,22.60
2017-12-27T04:18:45.961Z,20.17
2017-12-27T04:21:22.295Z,18.33
2017-12-27T04:23:59.990Z,17.33
2017-12-27T04:26:35.322Z,12.50
2017-12-27T04:29:09.367Z,10.07
2017-12-27T04:31:45.024Z,8.30
2017-12-27T04:34:21.878Z,10.63
2017-12-27T04:36:56.534Z,8.60
2017-12-27T04:39:52.392Z,8.83
2017-12-27T04:42:27.392Z,5.40
2017-12-27T04:45:10.365Z,7.73
2017-12-27T04:47:45.914Z,5.50
2017-12-27T04:50:22.105Z,4.13
2017-12-27T04:52:55.232Z,3.80
2017-12-27T04:58:48.391Z,5.77
2017-12-27T05:01:17.642Z,3.70
2017-12-27T05:03:49.360Z,2.70
2017-12-27T05:06:21.300Z,2.90
2017-12-27T05:08:54.548Z,3.00
2017-12-27T05:11:30.474Z,3.10
2017-12-27T05:14:04.551Z,3.00
2017-12-27T05:16:39.994Z,3.10
2017-12-27T05:19:13.063Z,3.10
2017-12-27T05:21:48.372Z,3.00
2017-12-27T05:24:25.217Z,2.60
2017-12-27T05:27:04.899Z,2.87
2017-12-27T05:29:39.412Z,2.80
2017-12-27T05:32:09.927Z,3.10
2017-12-27T05:34:47.732Z,3.50
2017-12-27T05:37:26.593Z,3.30
2017-12-27T05:43:29.530Z,3.10
2017-12-27T05:46:02.497Z,3.10
2017-12-27T05:48:33.978Z,3.30
2017-12-27T05:51:09.303Z,3.60
2017-12-27T05:53:41.204Z,4.00
2017-12-27T05:56:11.313Z,3.63
2017-12-27T05:58:46.384Z,3.33
2017-12-27T06:01:22.247Z,2.50
2017-12-27T06:03:58.713Z,3.13
2017-12-27T06:06:31.272Z,2.40
2017-12-27T06:09:02.369Z,2.13
2017-12-27T06:12:10.250Z,4.37
2017-12-27T06:14:44.496Z,2.20
2017-12-27T06:17:24.091Z,1.90
2017-12-27T06:19:59.178Z,1.73
2017-12-27T06:22:33.853Z,1.57
2017-12-27T06:25:08.946Z,1.30
2017-12-27T06:27:44.596Z,1.27
2017-12-27T06:30:13.022Z,1.50
2017-12-27T06:32:49.393Z,1.40
2017-12-27T06:35:26.286Z,0.90
2017-12-27T06:38:02.609Z,0.77
2017-12-27T06:40:32.961Z,0.40
2017-12-27T06:43:22.593Z,0.60
2017-12-27T06:45:55.054Z,0.43
2017-12-27T06:48:32.752Z,0.67
2017-12-27T06:51:07.997Z,0.50
2017-12-27T06:53:41.649Z,0.40
2017-12-27T06:56:52.720Z,0.70
2017-12-27T06:59:24.116Z,0.50
2017-12-27T07:01:58.352Z,0.50
2017-12-27T07:04:31.834Z,0.57
2017-12-27T07:07:05.156Z,0.20
2017-12-27T07:09:43.213Z,0.40
2017-12-27T07:12:16.205Z,0.30
2017-12-27T07:14:55.915Z,0.17
2017-12-27T07:17:27.831Z,0.30
2017-12-27T07:20:03.019Z,0.50
2017-12-27T07:22:40.804Z,0.67
2017-12-27T07:25:15.173Z,0.40
2017-12-27T07:27:48.794Z,1.70
2017-12-27T07:30:26.235Z,0.50
2017-12-27T07:33:00.734Z,0.63
2017-12-27T07:35:33.279Z,0.50
2017-12-27T07:38:04.513Z,0.63
2017-12-27T07:40:36.898Z,0.77
2017-12-27T07:43:09.354Z,0.60
2017-12-27T07:45:40.321Z,1.13
2017-12-27T07:48:11.285Z,0.90
2017-12-27T07:50:42.395Z,0.70
2017-12-27T07:53:13.941Z,1.30
2017-12-27T07:55:43.912Z,0.70
2017-12-27T08:18:37.476Z,1.57
2017-12-27T08:21:13.354Z,0.63
2017-12-27T08:23:46.062Z,0.70
2017-12-27T08:26:19.525Z,0.60
2017-12-27T08:32:13.758Z,0.40
2017-12-27T08:34:43.390Z,0.53
2017-12-27T08:37:14.769Z,0.50
2017-12-27T08:40:24.446Z,0.60
2017-12-27T08:43:15.521Z,0.60
2017-12-27T08:45:45.665Z,0.43
2017-12-27T08:48:15.385Z,1.20
2017-12-27T08:50:44.782Z,1.63
2017-12-27T08:53:17.339Z,2.07
2017-12-27T08:55:51.332Z,3.53
2017-12-27T08:58:46.821Z,3.17
2017-12-27T09:01:17.636Z,3.70
2017-12-27T09:03:51.522Z,4.00
2017-12-27T09:06:20.830Z,4.23
2017-12-27T09:08:53.525Z,4.60
2017-12-27T09:11:27.058Z,3.73
2017-12-27T09:13:57.925Z,6.80
2017-12-27T09:16:27.780Z,3.90
2017-12-27T09:19:01.675Z,3.73
2017-12-27T09:21:35.253Z,4.20
2017-12-27T09:24:11.323Z,3.70
2017-12-27T09:26:42.015Z,2.90
2017-12-27T09:32:54.623Z,4.43
2017-12-27T09:35:24.643Z,3.10
2017-12-27T09:37:54.966Z,5.13
2017-12-27T09:40:29.669Z,4.00
2017-12-27T09:43:00.984Z,3.57
2017-12-27T09:59:17.829Z,4.63
2017-12-27T10:01:47.314Z,4.87
2017-12-27T10:04:20.885Z,4.50
2017-12-27T10:06:51.135Z,4.97
2017-12-27T10:09:22.188Z,5.77
2017-12-27T10:11:54.287Z,5.07
2017-12-27T10:17:45.193Z,4.70
2017-12-27T10:20:19.839Z,4.43
2017-12-27T10:22:50.112Z,3.17
2017-12-27T10:25:18.752Z,2.90
2017-12-27T10:28:00.626Z,3.03
2017-12-27T10:41:00.899Z,3.87
2017-12-27T10:43:39.398Z,1.87
2017-12-27T10:46:08.194Z,3.43
2017-12-27T10:48:36.590Z,2.90
2017-12-27T10:51:09.340Z,3.33
2017-12-27T10:53:44.073Z,3.60
2017-12-27T10:56:19.782Z,3.03
2017-12-27T10:58:54.451Z,4.17
2017-12-27T11:01:29.104Z,3.03
2017-12-27T11:03:59.747Z,3.63
2017-12-27T11:06:28.521Z,3.63
2017-12-27T11:09:00.758Z,3.13
2017-12-27T11:11:29.180Z,3.50
2017-12-27T11:14:00.576Z,3.03
2017-12-27T11:16:52.659Z,4.23
2017-12-27T11:19:22.534Z,4.83
2017-12-27T11:21:51.030Z,3.67
2017-12-27T11:24:20.912Z,3.13
2017-12-27T11:26:50.403Z,2.90
2017-12-27T11:29:27.161Z,3.67
2017-12-27T11:35:30.425Z,3.40
2017-12-27T11:38:02.880Z,4.00
2017-12-27T11:40:33.021Z,6.97
2017-12-27T11:43:04.419Z,3.47
2017-12-27T11:45:35.523Z,4.40
2017-12-27T11:48:09.366Z,3.30
2017-12-27T11:50:40.108Z,2.80
2017-12-27T11:53:10.319Z,3.13
2017-12-27T11:55:41.494Z,3.33
2017-12-27T11:58:10.650Z,4.00
2017-12-27T12:04:28.214Z,3.90
2017-12-27T12:07:00.083Z,4.97
2017-12-27T12:09:31.158Z,4.27
2017-12-27T12:12:03.485Z,4.07
2017-12-27T12:14:36.781Z,3.70
2017-12-27T12:27:55.542Z,7.07
2017-12-27T12:30:27.774Z,2.80
2017-12-27T12:33:38.349Z,4.37
2017-12-27T12:36:10.029Z,4.00
2017-12-27T12:38:44.096Z,3.50
2017-12-27T12:41:16.461Z,3.80
2017-12-27T12:43:48.493Z,3.67
2017-12-27T12:46:45.446Z,3.63
2017-12-27T12:49:16.533Z,3.47
2017-12-27T12:51:50.435Z,5.03
2017-12-27T12:54:29.280Z,4.37
2017-12-27T12:57:02.921Z,4.27
2017-12-27T12:59:31.392Z,5.37
2017-12-27T13:02:11.254Z,5.20
2017-12-27T13:07:31.913Z,3.57
2017-12-27T13:10:01.667Z,3.53
2017-12-27T13:12:36.607Z,3.27
2017-12-27T13:15:08.403Z,5.10
2017-12-27T13:31:46.263Z,5.23
2017-12-27T13:34:21.919Z,6.00
2017-12-27T13:36:53.334Z,3.33
2017-12-27T13:39:24.852Z,3.40
2017-12-27T13:41:58.272Z,6.53
2017-12-27T13:44:30.755Z,5.90
2017-12-27T13:47:04.436Z,5.47
2017-12-27T13:49:33.370Z,10.30
2017-12-27T13:52:05.735Z,5.53
2017-12-27T13:54:37.741Z,4.97
2017-12-27T13:57:11.450Z,3.77
2017-12-27T13:59:46.961Z,8.00
2017-12-27T14:02:22.203Z,8.77
2017-12-27T14:04:59.527Z,4.10
2017-12-27T14:07:31.684Z,7.27
2017-12-27T14:10:03.413Z,8.97
2017-12-27T14:12:34.826Z,4.70
2017-12-27T14:15:07.143Z,8.53
2017-12-27T14:17:38.458Z,9.43
2017-12-27T14:20:07.638Z,6.90
2017-12-27T14:22:38.005Z,12.87
2017-12-27T14:25:07.873Z,7.37
2017-12-27T14:27:39.143Z,7.93
2017-12-27T14:30:10.488Z,6.43
2017-12-27T14:32:52.407Z,4.93
2017-12-27T14:35:24.618Z,12.70
2017-12-27T14:37:57.930Z,6.80
2017-12-27T14:40:30.421Z,7.50
2017-12-27T14:43:02.788Z,7.03
2017-12-27T14:45:32.490Z,8.20
2017-12-27T14:58:11.397Z,4.93
2017-12-27T15:00:42.789Z,4.57
2017-12-27T15:03:19.060Z,7.77
2017-12-27T15:05:51.342Z,4.77
2017-12-27T15:08:21.988Z,5.07
2017-12-27T15:10:51.588Z,5.57
2017-12-27T15:13:21.755Z,4.33
2017-12-27T15:15:53.905Z,7.93
2017-12-27T15:18:46.055Z,6.63
2017-12-27T15:21:16.059Z,6.60
2017-12-27T15:23:47.004Z,6.00
2017-12-27T15:26:17.105Z,6.63
2017-12-27T15:28:48.542Z,5.57
2017-12-27T15:31:20.283Z,8.03
2017-12-27T15:33:50.934Z,7.77
2017-12-27T15:36:21.358Z,4.20
2017-12-27T15:38:53.335Z,6.20
2017-12-27T15:41:25.556Z,5.73
2017-12-27T15:43:58.069Z,5.30
2017-12-27T15:46:30.008Z,6.33
2017-12-27T15:49:02.421Z,6.13
2017-12-27T15:51:33.828Z,4.23
2017-12-27T15:54:03.880Z,8.93
2017-12-27T15:56:34.197Z,5.00
2017-12-27T15:59:02.946Z,7.50
2017-12-27T16:01:33.541Z,6.33
2017-12-27T16:14:19.483Z,7.70
2017-12-27T16:16:50.683Z,3.83
2017-12-27T16:19:20.203Z,4.43
2017-12-27T16:21:50.594Z,5.10
2017-12-27T16:24:21.719Z,3.93
2017-12-27T16:26:51.780Z,7.33
2017-12-27T16:29:23.876Z,6.73
2017-12-27T16:31:56.619Z,4.57
2017-12-27T16:34:56.571Z,6.17
2017-12-27T16:37:28.401Z,8.03
2017-12-27T16:39:57.785Z,6.43
2017-12-27T16:42:28.844Z,5.37
2017-12-27T16:44:59.910Z,4.90
2017-12-27T16:47:38.229Z,5.23
2017-12-27T16:50:48.028Z,9.20
2017-12-27T16:53:18.434Z,4.27
2017-12-27T16:55:48.078Z,3.97
2017-12-27T16:58:17.550Z,16.03
2017-12-27T17:00:50.079Z,5.37
2017-12-27T17:03:20.645Z,7.73
2017-12-27T17:06:33.898Z,7.87
2017-12-27T17:09:06.273Z,9.70
2017-12-27T17:11:36.063Z,4.97
2017-12-27T17:14:08.037Z,6.77
2017-12-27T17:16:37.955Z,4.43
2017-12-27T17:19:06.799Z,4.27
2017-12-27T17:24:59.051Z,6.67
2017-12-27T17:27:28.210Z,9.20
2017-12-27T17:29:58.757Z,10.57
2017-12-27T17:32:32.325Z,8.30
2017-12-27T17:35:02.463Z,5.93
2017-12-27T17:47:50.783Z,9.47
2017-12-27T17:50:24.613Z,5.10
2017-12-27T17:52:56.120Z,8.53
2017-12-27T17:55:24.883Z,5.73
2017-12-27T17:57:53.945Z,7.67
2017-12-27T18:00:29.446Z,8.27
2017-12-27T18:03:04.022Z,7.50
2017-12-27T18:05:37.260Z,8.63
2017-12-27T18:37:31.439Z,7.80
2017-12-27T18:40:05.199Z,8.30
2017-12-27T18:42:37.684Z,10.13
2017-12-27T18:45:11.642Z,7.43
2017-12-27T18:47:45.350Z,10.03
2017-12-27T18:50:17.414Z,7.33
2017-12-27T18:52:52.233Z,6.93
2017-12-27T18:55:24.975Z,7.17
2017-12-27T18:57:56.415Z,5.23
2017-12-27T19:00:31.260Z,5.43
2017-12-27T19:03:05.570Z,7.80
2017-12-27T19:05:39.961Z,5.90
2017-12-27T19:08:15.712Z,9.43
2017-12-27T19:11:06.505Z,5.33
2017-12-27T19:13:37.123Z,7.77
2017-12-27T19:16:08.167Z,6.80
2017-12-27T19:18:40.435Z,11.83
2017-12-27T19:21:11.730Z,5.20
2017-12-27T19:30:25.593Z,5.20
2017-12-27T19:33:11.961Z,6.73
2017-12-27T19:36:02.943Z,6.10
2017-12-27T20:01:57.747Z,5.77
2017-12-27T20:04:30.265Z,6.07
2017-12-27T20:07:00.665Z,5.73
2017-12-27T20:09:48.675Z,4.63
2017-12-27T20:12:18.544Z,3.30
2017-12-27T20:14:50.518Z,2.87
2017-12-27T20:17:20.445Z,5.10
2017-12-27T20:19:51.654Z,5.10
2017-12-27T20:22:22.073Z,3.00
2017-12-27T20:25:13.893Z,6.33
2017-12-27T20:27:43.536Z,3.63
2017-12-27T20:30:13.380Z,5.77
2017-12-27T20:32:43.952Z,3.43
2017-12-27T20:35:16.982Z,5.07
2017-12-27T20:37:53.030Z,5.43
2017-12-27T20:40:27.725Z,5.03
2017-12-27T20:43:01.991Z,7.20
2017-12-27T20:45:32.989Z,6.90
2017-12-27T20:48:04.480Z,4.17
2017-12-27T20:50:33.879Z,4.53
2017-12-27T20:53:04.518Z,3.67
2017-12-27T20:55:35.532Z,5.30
2017-12-27T20:58:05.647Z,2.90
2017-12-27T21:00:34.771Z,2.87
2017-12-27T21:03:04.013Z,4.70
2017-12-27T21:05:35.754Z,3.70
2017-12-27T21:08:05.264Z,2.70
2017-12-27T21:10:35.869Z,4.07
2017-12-27T21:13:04.886Z,4.20
2017-12-27T21:15:34.778Z,4.57
2017-12-27T21:18:05.792Z,5.67
2017-12-27T21:20:37.309Z,3.67
2017-12-27T21:23:08.250Z,3.77
2017-12-27T21:29:02.775Z,3.20
2017-12-27T21:31:33.441Z,5.87
2017-12-27T21:34:04.740Z,2.77
2017-12-27T21:36:35.564Z,3.20
2017-12-27T21:55:56.342Z,6.50
2017-12-27T21:58:31.896Z,4.20
2017-12-27T22:01:08.359Z,3.37
2017-12-27T22:03:38.845Z,5.07
2017-12-27T22:06:10.986Z,10.03
2017-12-27T22:08:40.513Z,2.83
2017-12-27T22:11:11.412Z,2.30
2017-12-27T22:13:41.207Z,2.90
2017-12-27T22:16:12.577Z,4.27
2017-12-27T22:18:45.488Z,3.47
2017-12-27T22:21:16.100Z,3.17
2017-12-27T22:23:47.076Z,4.70
2017-12-27T22:36:24.539Z,3.17
2017-12-27T22:38:55.543Z,3.73
2017-12-27T22:41:49.938Z,3.67
2017-12-27T22:44:20.452Z,4.73
2017-12-27T22:46:54.161Z,2.90
2017-12-27T22:49:26.913Z,2.97
2017-12-27T22:52:07.927Z,3.83
2017-12-27T22:55:17.950Z,3.30
2017-12-27T22:57:49.386Z,4.73
2017-12-27T23:00:22.871Z,2.97
2017-12-27T23:02:55.969Z,2.60
2017-12-27T23:05:28.826Z,4.03
2017-12-27T23:08:01.544Z,5.13
2017-12-27T23:11:11.953Z,6.73
2017-12-27T23:13:46.634Z,7.53
2017-12-27T23:16:22.110Z,5.23
2017-12-27T23:18:55.044Z,4.97
2017-12-27T23:21:26.900Z,3.33
2017-12-27T23:23:58.727Z,4.70
2017-12-27T23:30:31.521Z,3.83
2017-12-27T23:33:03.803Z,4.30
2017-12-27T23:35:37.197Z,12.33
2017-12-27T23:38:07.029Z,4.60
2017-12-27T23:40:36.637Z,5.33
2017-12-27T23:43:07.026Z,6.80
2017-12-27T23:45:37.503Z,3.80
2017-12-27T23:48:08.334Z,3.70
2017-12-27T23:50:39.933Z,4.20
2017-12-27T23:53:14.654Z,5.63
2017-12-27T23:55:47.309Z,5.50
2017-12-27T23:58:17.050Z,6.07
